sensor_id;sensor_type;location;lat;lon;timestamp;P1;durP1;ratioP1;P2;durP2;ratioP2
65206;SDS011;58477;48.072;11.970;2023-03-23T00:01:47;4.18;;;2.60;;
65206;SDS011;58477;48.072;11.970;2023-03-23T00:04:15;3.58;;;2.70;;
65206;SDS011;58477;48.072;11.970;2023-03-23T00:06:41;4.13;;;2.65;;
65206;SDS011;58477;48.072;11.970;2023-03-23T00:09:10;6.30;;;2.95;;
65206;SDS011;58477;48.072;11.970;2023-03-23T00:11:40;5.50;;;3.10;;
65206;SDS011;58477;48.072;11.970;2023-03-23T00:14:06;3.60;;;2.80;;
65206;SDS011;58477;48.072;11.970;2023-03-23T00:16:38;5.70;;;3.25;;
65206;SDS011;58477;48.072;11.970;2023-03-23T00:19:09;3.90;;;3.13;;
65206;SDS011;58477;48.072;11.970;2023-03-23T00:21:40;6.25;;;3.55;;
65206;SDS011;58477;48.072;11.970;2023-03-23T00:24:11;4.97;;;3.20;;
65206;SDS011;58477;48.072;11.970;2023-03-23T00:26:41;4.57;;;3.38;;
65206;SDS011;58477;48.072;11.970;2023-03-23T00:29:12;4.55;;;3.20;;
65206;SDS011;58477;48.072;11.970;2023-03-23T00:31:42;5.60;;;3.15;;
65206;SDS011;58477;48.072;11.970;2023-03-23T00:34:12;5.03;;;3.25;;
65206;SDS011;58477;48.072;11.970;2023-03-23T00:36:44;4.03;;;2.67;;
65206;SDS011;58477;48.072;11.970;2023-03-23T00:39:11;4.35;;;2.55;;
65206;SDS011;58477;48.072;11.970;2023-03-23T00:41:36;5.47;;;3.13;;
65206;SDS011;58477;48.072;11.970;2023-03-23T00:44:03;4.75;;;2.55;;
65206;SDS011;58477;48.072;11.970;2023-03-23T00:46:29;4.18;;;2.72;;
65206;SDS011;58477;48.072;11.970;2023-03-23T00:48:55;4.25;;;2.83;;
65206;SDS011;58477;48.072;11.970;2023-03-23T00:51:22;4.70;;;2.45;;
65206;SDS011;58477;48.072;11.970;2023-03-23T00:53:49;3.53;;;2.97;;
65206;SDS011;58477;48.072;11.970;2023-03-23T00:56:15;4.90;;;3.08;;
65206;SDS011;58477;48.072;11.970;2023-03-23T00:58:40;3.35;;;2.83;;
65206;SDS011;58477;48.072;11.970;2023-03-23T01:01:07;3.70;;;3.00;;
65206;SDS011;58477;48.072;11.970;2023-03-23T01:03:33;5.43;;;3.03;;
65206;SDS011;58477;48.072;11.970;2023-03-23T01:06:03;10.13;;;3.35;;
65206;SDS011;58477;48.072;11.970;2023-03-23T01:08:30;5.05;;;2.67;;
65206;SDS011;58477;48.072;11.970;2023-03-23T01:11:04;4.05;;;2.88;;
65206;SDS011;58477;48.072;11.970;2023-03-23T01:13:30;3.45;;;2.63;;
65206;SDS011;58477;48.072;11.970;2023-03-23T01:15:56;6.55;;;3.08;;
65206;SDS011;58477;48.072;11.970;2023-03-23T01:18:22;3.10;;;2.40;;
65206;SDS011;58477;48.072;11.970;2023-03-23T01:20:47;4.07;;;2.63;;
65206;SDS011;58477;48.072;11.970;2023-03-23T01:23:13;4.03;;;2.80;;
65206;SDS011;58477;48.072;11.970;2023-03-23T01:25:38;3.45;;;2.72;;
65206;SDS011;58477;48.072;11.970;2023-03-23T01:28:04;3.95;;;2.97;;
65206;SDS011;58477;48.072;11.970;2023-03-23T01:30:30;4.03;;;2.60;;
65206;SDS011;58477;48.072;11.970;2023-03-23T01:32:56;3.00;;;2.70;;
65206;SDS011;58477;48.072;11.970;2023-03-23T01:35:22;3.63;;;2.50;;
65206;SDS011;58477;48.072;11.970;2023-03-23T01:37:47;3.42;;;2.60;;
65206;SDS011;58477;48.072;11.970;2023-03-23T01:40:14;5.78;;;2.60;;
65206;SDS011;58477;48.072;11.970;2023-03-23T01:42:41;4.45;;;2.63;;
65206;SDS011;58477;48.072;11.970;2023-03-23T01:47:46;5.80;;;2.40;;
65206;SDS011;58477;48.072;11.970;2023-03-23T01:50:13;4.43;;;2.80;;
65206;SDS011;58477;48.072;11.970;2023-03-23T01:52:39;3.53;;;2.40;;
65206;SDS011;58477;48.072;11.970;2023-03-23T01:55:06;5.35;;;2.50;;
65206;SDS011;58477;48.072;11.970;2023-03-23T01:57:32;3.35;;;2.20;;
65206;SDS011;58477;48.072;11.970;2023-03-23T02:00:02;2.25;;;2.05;;
65206;SDS011;58477;48.072;11.970;2023-03-23T02:02:46;2.45;;;2.25;;
65206;SDS011;58477;48.072;11.970;2023-03-23T02:05:19;2.83;;;2.40;;
65206;SDS011;58477;48.072;11.970;2023-03-23T02:07:49;3.90;;;2.72;;
65206;SDS011;58477;48.072;11.970;2023-03-23T02:10:16;2.80;;;2.28;;
65206;SDS011;58477;48.072;11.970;2023-03-23T02:12:42;2.80;;;2.58;;
65206;SDS011;58477;48.072;11.970;2023-03-23T02:15:09;3.33;;;2.58;;
65206;SDS011;58477;48.072;11.970;2023-03-23T02:17:45;4.75;;;2.78;;
65206;SDS011;58477;48.072;11.970;2023-03-23T02:20:30;5.53;;;2.50;;
65206;SDS011;58477;48.072;11.970;2023-03-23T02:28:31;2.97;;;2.33;;
65206;SDS011;58477;48.072;11.970;2023-03-23T02:31:26;5.53;;;3.22;;
65206;SDS011;58477;48.072;11.970;2023-03-23T02:36:45;6.90;;;2.83;;
65206;SDS011;58477;48.072;11.970;2023-03-23T02:39:37;3.05;;;2.50;;
65206;SDS011;58477;48.072;11.970;2023-03-23T02:42:12;3.03;;;2.03;;
65206;SDS011;58477;48.072;11.970;2023-03-23T02:44:42;3.75;;;2.47;;
65206;SDS011;58477;48.072;11.970;2023-03-23T02:47:17;4.40;;;2.30;;
65206;SDS011;58477;48.072;11.970;2023-03-23T02:49:46;4.88;;;2.22;;
65206;SDS011;58477;48.072;11.970;2023-03-23T02:52:19;3.65;;;2.28;;
65206;SDS011;58477;48.072;11.970;2023-03-23T02:54:49;2.83;;;2.47;;
65206;SDS011;58477;48.072;11.970;2023-03-23T02:57:17;3.42;;;2.22;;
65206;SDS011;58477;48.072;11.970;2023-03-23T02:59:45;2.95;;;2.30;;
65206;SDS011;58477;48.072;11.970;2023-03-23T03:02:17;4.80;;;2.83;;
65206;SDS011;58477;48.072;11.970;2023-03-23T03:04:54;5.43;;;2.10;;
65206;SDS011;58477;48.072;11.970;2023-03-23T03:07:35;5.60;;;2.40;;
65206;SDS011;58477;48.072;11.970;2023-03-23T03:15:27;2.58;;;2.33;;
65206;SDS011;58477;48.072;11.970;2023-03-23T03:18:05;4.18;;;2.58;;
65206;SDS011;58477;48.072;11.970;2023-03-23T03:20:45;2.95;;;2.60;;
65206;SDS011;58477;48.072;11.970;2023-03-23T03:23:14;2.67;;;2.38;;
65206;SDS011;58477;48.072;11.970;2023-03-23T03:25:43;4.32;;;2.75;;
65206;SDS011;58477;48.072;11.970;2023-03-23T03:28:17;2.58;;;2.35;;
65206;SDS011;58477;48.072;11.970;2023-03-23T03:30:49;2.70;;;2.47;;
65206;SDS011;58477;48.072;11.970;2023-03-23T03:33:20;3.60;;;2.80;;
65206;SDS011;58477;48.072;11.970;2023-03-23T03:35:51;3.58;;;2.63;;
65206;SDS011;58477;48.072;11.970;2023-03-23T03:38:20;4.03;;;2.70;;
65206;SDS011;58477;48.072;11.970;2023-03-23T03:40:46;6.60;;;2.75;;
65206;SDS011;58477;48.072;11.970;2023-03-23T03:43:12;4.10;;;3.17;;
65206;SDS011;58477;48.072;11.970;2023-03-23T03:45:37;3.95;;;2.58;;
65206;SDS011;58477;48.072;11.970;2023-03-23T03:48:03;4.68;;;2.63;;
65206;SDS011;58477;48.072;11.970;2023-03-23T03:50:29;6.50;;;2.97;;
65206;SDS011;58477;48.072;11.970;2023-03-23T03:52:55;3.78;;;2.65;;
65206;SDS011;58477;48.072;11.970;2023-03-23T03:55:21;4.57;;;2.63;;
65206;SDS011;58477;48.072;11.970;2023-03-23T03:57:48;4.38;;;2.83;;
65206;SDS011;58477;48.072;11.970;2023-03-23T04:00:32;2.80;;;2.35;;
65206;SDS011;58477;48.072;11.970;2023-03-23T04:02:57;3.78;;;2.83;;
65206;SDS011;58477;48.072;11.970;2023-03-23T04:05:45;6.13;;;2.92;;
65206;SDS011;58477;48.072;11.970;2023-03-23T04:08:11;4.28;;;2.70;;
65206;SDS011;58477;48.072;11.970;2023-03-23T04:10:37;3.28;;;2.88;;
65206;SDS011;58477;48.072;11.970;2023-03-23T04:13:02;4.90;;;2.72;;
65206;SDS011;58477;48.072;11.970;2023-03-23T04:15:35;3.53;;;2.78;;
65206;SDS011;58477;48.072;11.970;2023-03-23T04:18:01;3.22;;;2.60;;
65206;SDS011;58477;48.072;11.970;2023-03-23T04:20:28;4.10;;;2.63;;
65206;SDS011;58477;48.072;11.970;2023-03-23T04:22:54;4.65;;;2.97;;
65206;SDS011;58477;48.072;11.970;2023-03-23T04:25:23;4.60;;;3.08;;
65206;SDS011;58477;48.072;11.970;2023-03-23T04:27:51;3.30;;;3.00;;
65206;SDS011;58477;48.072;11.970;2023-03-23T04:30:22;4.90;;;2.85;;
65206;SDS011;58477;48.072;11.970;2023-03-23T04:33:06;3.20;;;2.85;;
65206;SDS011;58477;48.072;11.970;2023-03-23T04:35:31;3.05;;;2.67;;
65206;SDS011;58477;48.072;11.970;2023-03-23T04:38:12;5.10;;;2.60;;
65206;SDS011;58477;48.072;11.970;2023-03-23T04:40:39;4.38;;;2.90;;
65206;SDS011;58477;48.072;11.970;2023-03-23T04:43:19;5.35;;;2.90;;
65206;SDS011;58477;48.072;11.970;2023-03-23T04:45:53;4.85;;;2.72;;
65206;SDS011;58477;48.072;11.970;2023-03-23T04:48:26;4.28;;;2.92;;
65206;SDS011;58477;48.072;11.970;2023-03-23T04:51:02;5.05;;;2.97;;
65206;SDS011;58477;48.072;11.970;2023-03-23T04:53:30;3.00;;;2.50;;
65206;SDS011;58477;48.072;11.970;2023-03-23T04:55:57;4.05;;;2.78;;
65206;SDS011;58477;48.072;11.970;2023-03-23T04:58:23;4.00;;;2.92;;
65206;SDS011;58477;48.072;11.970;2023-03-23T05:01:11;5.53;;;2.95;;
65206;SDS011;58477;48.072;11.970;2023-03-23T05:03:48;3.65;;;2.70;;
65206;SDS011;58477;48.072;11.970;2023-03-23T05:06:14;5.35;;;3.08;;
65206;SDS011;58477;48.072;11.970;2023-03-23T05:08:42;4.07;;;3.10;;
65206;SDS011;58477;48.072;11.970;2023-03-23T05:11:07;3.75;;;2.83;;
65206;SDS011;58477;48.072;11.970;2023-03-23T05:13:37;3.58;;;2.88;;
65206;SDS011;58477;48.072;11.970;2023-03-23T05:16:03;4.05;;;2.95;;
65206;SDS011;58477;48.072;11.970;2023-03-23T05:18:30;4.22;;;2.72;;
65206;SDS011;58477;48.072;11.970;2023-03-23T05:21:01;3.75;;;2.70;;
65206;SDS011;58477;48.072;11.970;2023-03-23T05:23:31;6.63;;;3.22;;
65206;SDS011;58477;48.072;11.970;2023-03-23T05:26:05;3.08;;;2.67;;
65206;SDS011;58477;48.072;11.970;2023-03-23T05:28:32;6.40;;;2.63;;
65206;SDS011;58477;48.072;11.970;2023-03-23T05:31:11;6.25;;;2.60;;
65206;SDS011;58477;48.072;11.970;2023-03-23T05:33:38;4.30;;;3.00;;
65206;SDS011;58477;48.072;11.970;2023-03-23T05:36:10;5.78;;;3.08;;
65206;SDS011;58477;48.072;11.970;2023-03-23T05:38:57;4.13;;;2.65;;
65206;SDS011;58477;48.072;11.970;2023-03-23T05:41:25;2.97;;;2.67;;
65206;SDS011;58477;48.072;11.970;2023-03-23T05:43:51;3.00;;;2.53;;
65206;SDS011;58477;48.072;11.970;2023-03-23T05:46:33;4.28;;;2.65;;
65206;SDS011;58477;48.072;11.970;2023-03-23T05:49:00;7.78;;;2.90;;
65206;SDS011;58477;48.072;11.970;2023-03-23T05:51:32;6.93;;;2.83;;
65206;SDS011;58477;48.072;11.970;2023-03-23T05:53:58;2.80;;;2.28;;
65206;SDS011;58477;48.072;11.970;2023-03-23T05:56:24;3.58;;;2.47;;
65206;SDS011;58477;48.072;11.970;2023-03-23T05:59:28;3.65;;;2.65;;
65206;SDS011;58477;48.072;11.970;2023-03-23T06:01:56;2.97;;;2.35;;
65206;SDS011;58477;48.072;11.970;2023-03-23T06:04:22;5.00;;;2.08;;
65206;SDS011;58477;48.072;11.970;2023-03-23T06:07:08;2.72;;;2.53;;
65206;SDS011;58477;48.072;11.970;2023-03-23T06:09:43;6.97;;;2.83;;
65206;SDS011;58477;48.072;11.970;2023-03-23T06:12:23;3.22;;;2.53;;
65206;SDS011;58477;48.072;11.970;2023-03-23T06:15:08;2.83;;;2.10;;
65206;SDS011;58477;48.072;11.970;2023-03-23T06:18:01;2.80;;;2.40;;
65206;SDS011;58477;48.072;11.970;2023-03-23T06:20:35;3.78;;;2.92;;
65206;SDS011;58477;48.072;11.970;2023-03-23T06:23:13;2.63;;;2.28;;
65206;SDS011;58477;48.072;11.970;2023-03-23T06:25:39;3.10;;;2.55;;
65206;SDS011;58477;48.072;11.970;2023-03-23T06:28:05;4.28;;;2.55;;
65206;SDS011;58477;48.072;11.970;2023-03-23T06:30:33;3.72;;;2.53;;
65206;SDS011;58477;48.072;11.970;2023-03-23T06:32:59;2.60;;;2.40;;
65206;SDS011;58477;48.072;11.970;2023-03-23T06:35:47;2.67;;;2.47;;
65206;SDS011;58477;48.072;11.970;2023-03-23T06:38:33;3.22;;;2.92;;
65206;SDS011;58477;48.072;11.970;2023-03-23T06:40:59;2.40;;;2.17;;
65206;SDS011;58477;48.072;11.970;2023-03-23T06:43:26;3.03;;;1.98;;
65206;SDS011;58477;48.072;11.970;2023-03-23T06:46:07;7.55;;;2.70;;
65206;SDS011;58477;48.072;11.970;2023-03-23T06:48:35;8.13;;;3.13;;
65206;SDS011;58477;48.072;11.970;2023-03-23T06:51:01;23.50;;;3.63;;
65206;SDS011;58477;48.072;11.970;2023-03-23T06:53:28;6.25;;;3.38;;
65206;SDS011;58477;48.072;11.970;2023-03-23T06:55:56;7.55;;;3.15;;
65206;SDS011;58477;48.072;11.970;2023-03-23T06:58:22;8.00;;;3.80;;
65206;SDS011;58477;48.072;11.970;2023-03-23T07:00:52;8.65;;;3.33;;
65206;SDS011;58477;48.072;11.970;2023-03-23T07:03:30;5.97;;;2.90;;
65206;SDS011;58477;48.072;11.970;2023-03-23T07:05:57;4.43;;;3.10;;
65206;SDS011;58477;48.072;11.970;2023-03-23T07:08:26;5.20;;;2.97;;
65206;SDS011;58477;48.072;11.970;2023-03-23T07:10:52;5.40;;;2.63;;
65206;SDS011;58477;48.072;11.970;2023-03-23T07:13:22;4.25;;;2.65;;
65206;SDS011;58477;48.072;11.970;2023-03-23T07:15:52;2.80;;;2.45;;
65206;SDS011;58477;48.072;11.970;2023-03-23T07:18:18;5.10;;;2.78;;
65206;SDS011;58477;48.072;11.970;2023-03-23T07:20:47;5.70;;;2.85;;
65206;SDS011;58477;48.072;11.970;2023-03-23T07:23:17;5.13;;;2.90;;
65206;SDS011;58477;48.072;11.970;2023-03-23T07:25:53;5.25;;;2.72;;
65206;SDS011;58477;48.072;11.970;2023-03-23T07:28:23;4.95;;;2.80;;
65206;SDS011;58477;48.072;11.970;2023-03-23T07:30:51;4.15;;;2.88;;
65206;SDS011;58477;48.072;11.970;2023-03-23T07:33:18;5.47;;;3.17;;
65206;SDS011;58477;48.072;11.970;2023-03-23T07:35:44;5.95;;;2.65;;
65206;SDS011;58477;48.072;11.970;2023-03-23T07:38:13;2.70;;;2.28;;
65206;SDS011;58477;48.072;11.970;2023-03-23T07:40:42;3.75;;;2.70;;
65206;SDS011;58477;48.072;11.970;2023-03-23T07:43:13;3.33;;;2.40;;
65206;SDS011;58477;48.072;11.970;2023-03-23T07:45:58;6.63;;;3.25;;
65206;SDS011;58477;48.072;11.970;2023-03-23T07:48:29;5.68;;;3.15;;
65206;SDS011;58477;48.072;11.970;2023-03-23T07:50:54;5.47;;;2.75;;
65206;SDS011;58477;48.072;11.970;2023-03-23T07:53:20;5.53;;;2.63;;
65206;SDS011;58477;48.072;11.970;2023-03-23T07:55:55;7.85;;;2.63;;
65206;SDS011;58477;48.072;11.970;2023-03-23T07:58:41;5.15;;;2.53;;
65206;SDS011;58477;48.072;11.970;2023-03-23T08:01:06;5.35;;;2.63;;
65206;SDS011;58477;48.072;11.970;2023-03-23T08:03:34;8.48;;;2.40;;
65206;SDS011;58477;48.072;11.970;2023-03-23T08:06:12;9.05;;;2.90;;
65206;SDS011;58477;48.072;11.970;2023-03-23T08:08:51;7.40;;;2.30;;
65206;SDS011;58477;48.072;11.970;2023-03-23T08:11:55;2.35;;;2.15;;
65206;SDS011;58477;48.072;11.970;2023-03-23T08:14:39;3.13;;;2.38;;
65206;SDS011;58477;48.072;11.970;2023-03-23T08:17:26;3.78;;;2.22;;
65206;SDS011;58477;48.072;11.970;2023-03-23T08:20:11;3.60;;;2.35;;
65206;SDS011;58477;48.072;11.970;2023-03-23T08:22:55;3.00;;;2.50;;
65206;SDS011;58477;48.072;11.970;2023-03-23T08:25:48;4.68;;;2.70;;
65206;SDS011;58477;48.072;11.970;2023-03-23T08:28:30;3.00;;;2.30;;
65206;SDS011;58477;48.072;11.970;2023-03-23T08:31:14;2.30;;;2.10;;
65206;SDS011;58477;48.072;11.970;2023-03-23T08:33:55;3.78;;;3.05;;
65206;SDS011;58477;48.072;11.970;2023-03-23T08:36:36;2.97;;;2.60;;
65206;SDS011;58477;48.072;11.970;2023-03-23T08:39:08;3.50;;;2.35;;
65206;SDS011;58477;48.072;11.970;2023-03-23T08:41:52;2.70;;;2.50;;
65206;SDS011;58477;48.072;11.970;2023-03-23T08:44:36;3.47;;;2.50;;
65206;SDS011;58477;48.072;11.970;2023-03-23T08:47:12;3.25;;;2.60;;
65206;SDS011;58477;48.072;11.970;2023-03-23T08:49:56;3.20;;;2.70;;
65206;SDS011;58477;48.072;11.970;2023-03-23T08:52:43;6.13;;;2.92;;
65206;SDS011;58477;48.072;11.970;2023-03-23T08:55:35;2.55;;;2.08;;
65206;SDS011;58477;48.072;11.970;2023-03-23T08:58:19;3.20;;;2.40;;
65206;SDS011;58477;48.072;11.970;2023-03-23T09:01:07;3.28;;;2.53;;
65206;SDS011;58477;48.072;11.970;2023-03-23T09:03:43;6.40;;;2.80;;
65206;SDS011;58477;48.072;11.970;2023-03-23T09:06:25;3.28;;;2.88;;
65206;SDS011;58477;48.072;11.970;2023-03-23T09:08:51;4.32;;;3.10;;
65206;SDS011;58477;48.072;11.970;2023-03-23T09:11:17;5.55;;;3.35;;
65206;SDS011;58477;48.072;11.970;2023-03-23T09:13:42;4.20;;;2.60;;
65206;SDS011;58477;48.072;11.970;2023-03-23T09:16:08;3.00;;;2.70;;
65206;SDS011;58477;48.072;11.970;2023-03-23T09:18:34;4.25;;;3.25;;
65206;SDS011;58477;48.072;11.970;2023-03-23T09:21:00;3.78;;;2.45;;
65206;SDS011;58477;48.072;11.970;2023-03-23T09:23:26;7.20;;;2.75;;
65206;SDS011;58477;48.072;11.970;2023-03-23T09:25:52;9.38;;;3.13;;
65206;SDS011;58477;48.072;11.970;2023-03-23T09:28:19;3.58;;;2.75;;
65206;SDS011;58477;48.072;11.970;2023-03-23T09:30:45;9.80;;;3.33;;
65206;SDS011;58477;48.072;11.970;2023-03-23T09:33:10;5.60;;;3.15;;
65206;SDS011;58477;48.072;11.970;2023-03-23T09:35:36;2.90;;;2.60;;
65206;SDS011;58477;48.072;11.970;2023-03-23T09:38:03;3.20;;;2.67;;
65206;SDS011;58477;48.072;11.970;2023-03-23T09:40:36;3.47;;;3.10;;
65206;SDS011;58477;48.072;11.970;2023-03-23T09:50:50;3.65;;;2.95;;
65206;SDS011;58477;48.072;11.970;2023-03-23T09:53:34;7.30;;;3.25;;
65206;SDS011;58477;48.072;11.970;2023-03-23T09:56:08;3.88;;;3.05;;
65206;SDS011;58477;48.072;11.970;2023-03-23T09:58:39;8.35;;;3.08;;
65206;SDS011;58477;48.072;11.970;2023-03-23T10:01:25;5.72;;;3.15;;
65206;SDS011;58477;48.072;11.970;2023-03-23T10:03:58;8.60;;;3.53;;
65206;SDS011;58477;48.072;11.970;2023-03-23T10:06:28;4.03;;;2.78;;
65206;SDS011;58477;48.072;11.970;2023-03-23T10:08:55;3.10;;;2.80;;
65206;SDS011;58477;48.072;11.970;2023-03-23T10:22:23;3.72;;;2.72;;
65206;SDS011;58477;48.072;11.970;2023-03-23T10:24:59;5.13;;;2.67;;
65206;SDS011;58477;48.072;11.970;2023-03-23T10:27:44;3.22;;;2.50;;
65206;SDS011;58477;48.072;11.970;2023-03-23T10:30:17;3.45;;;2.72;;
65206;SDS011;58477;48.072;11.970;2023-03-23T10:32:50;3.08;;;2.38;;
65206;SDS011;58477;48.072;11.970;2023-03-23T10:35:24;3.25;;;2.85;;
65206;SDS011;58477;48.072;11.970;2023-03-23T10:37:59;3.10;;;2.80;;
65206;SDS011;58477;48.072;11.970;2023-03-23T10:40:29;3.10;;;2.50;;
65206;SDS011;58477;48.072;11.970;2023-03-23T10:42:56;3.08;;;2.75;;
65206;SDS011;58477;48.072;11.970;2023-03-23T10:45:24;5.63;;;2.42;;
65206;SDS011;58477;48.072;11.970;2023-03-23T10:50:45;2.65;;;2.22;;
65206;SDS011;58477;48.072;11.970;2023-03-23T10:53:22;3.17;;;1.90;;
65206;SDS011;58477;48.072;11.970;2023-03-23T10:55:55;8.88;;;2.33;;
65206;SDS011;58477;48.072;11.970;2023-03-23T11:00:54;6.63;;;1.92;;
65206;SDS011;58477;48.072;11.970;2023-03-23T11:06:05;2.10;;;1.60;;
65206;SDS011;58477;48.072;11.970;2023-03-23T11:08:56;4.47;;;1.95;;
65206;SDS011;58477;48.072;11.970;2023-03-23T11:11:28;3.42;;;1.77;;
65206;SDS011;58477;48.072;11.970;2023-03-23T11:13:59;3.70;;;2.10;;
65206;SDS011;58477;48.072;11.970;2023-03-23T11:16:27;9.52;;;1.85;;
65206;SDS011;58477;48.072;11.970;2023-03-23T11:18:56;2.03;;;1.50;;
65206;SDS011;58477;48.072;11.970;2023-03-23T11:21:23;2.40;;;1.75;;
65206;SDS011;58477;48.072;11.970;2023-03-23T11:23:51;2.50;;;1.67;;
65206;SDS011;58477;48.072;11.970;2023-03-23T11:31:41;4.18;;;1.92;;
65206;SDS011;58477;48.072;11.970;2023-03-23T11:34:20;5.05;;;1.70;;
65206;SDS011;58477;48.072;11.970;2023-03-23T11:39:29;4.38;;;2.00;;
65206;SDS011;58477;48.072;11.970;2023-03-23T11:41:57;5.30;;;1.85;;
65206;SDS011;58477;48.072;11.970;2023-03-23T11:44:31;2.65;;;1.70;;
65206;SDS011;58477;48.072;11.970;2023-03-23T11:47:11;3.35;;;1.52;;
65206;SDS011;58477;48.072;11.970;2023-03-23T11:50:04;3.38;;;1.67;;
65206;SDS011;58477;48.072;11.970;2023-03-23T11:52:46;2.03;;;1.83;;
65206;SDS011;58477;48.072;11.970;2023-03-23T11:55:19;2.58;;;1.58;;
65206;SDS011;58477;48.072;11.970;2023-03-23T11:57:55;2.72;;;1.67;;
65206;SDS011;58477;48.072;11.970;2023-03-23T12:00:25;2.53;;;1.52;;
65206;SDS011;58477;48.072;11.970;2023-03-23T12:11:22;1.90;;;1.70;;
65206;SDS011;58477;48.072;11.970;2023-03-23T12:24:21;2.33;;;2.13;;
65206;SDS011;58477;48.072;11.970;2023-03-23T12:27:07;4.93;;;2.50;;
65206;SDS011;58477;48.072;11.970;2023-03-23T12:44:06;4.15;;;2.60;;
65206;SDS011;58477;48.072;11.970;2023-03-23T12:51:51;4.10;;;2.78;;
65206;SDS011;58477;48.072;11.970;2023-03-23T12:54:44;4.32;;;2.60;;
65206;SDS011;58477;48.072;11.970;2023-03-23T12:57:39;4.70;;;2.38;;
65206;SDS011;58477;48.072;11.970;2023-03-23T13:00:23;3.47;;;2.35;;
65206;SDS011;58477;48.072;11.970;2023-03-23T13:05:30;2.97;;;2.25;;
65206;SDS011;58477;48.072;11.970;2023-03-23T13:08:22;6.15;;;2.38;;
65206;SDS011;58477;48.072;11.970;2023-03-23T13:10:49;3.35;;;2.05;;
65206;SDS011;58477;48.072;11.970;2023-03-23T13:14:00;3.55;;;2.22;;
65206;SDS011;58477;48.072;11.970;2023-03-23T13:16:27;2.83;;;2.08;;
65206;SDS011;58477;48.072;11.970;2023-03-23T13:22:38;3.78;;;2.05;;
65206;SDS011;58477;48.072;11.970;2023-03-23T13:25:10;4.30;;;2.20;;
65206;SDS011;58477;48.072;11.970;2023-03-23T13:27:44;4.07;;;2.30;;
65206;SDS011;58477;48.072;11.970;2023-03-23T13:30:25;2.88;;;2.38;;
65206;SDS011;58477;48.072;11.970;2023-03-23T13:33:01;2.83;;;2.05;;
65206;SDS011;58477;48.072;11.970;2023-03-23T13:35:32;6.10;;;2.63;;
65206;SDS011;58477;48.072;11.970;2023-03-23T13:38:01;5.40;;;2.20;;
65206;SDS011;58477;48.072;11.970;2023-03-23T13:40:35;4.40;;;2.53;;
65206;SDS011;58477;48.072;11.970;2023-03-23T13:43:07;5.88;;;2.30;;
65206;SDS011;58477;48.072;11.970;2023-03-23T13:45:44;3.38;;;2.05;;
65206;SDS011;58477;48.072;11.970;2023-03-23T13:50:57;6.18;;;2.67;;
65206;SDS011;58477;48.072;11.970;2023-03-23T13:56:07;5.78;;;1.30;;
65206;SDS011;58477;48.072;11.970;2023-03-23T13:58:45;1.50;;;1.33;;
65206;SDS011;58477;48.072;11.970;2023-03-23T14:01:15;6.93;;;1.30;;
65206;SDS011;58477;48.072;11.970;2023-03-23T14:03:44;4.32;;;1.30;;
65206;SDS011;58477;48.072;11.970;2023-03-23T14:06:16;2.33;;;1.40;;
65206;SDS011;58477;48.072;11.970;2023-03-23T14:09:03;3.28;;;1.15;;
65206;SDS011;58477;48.072;11.970;2023-03-23T14:18:21;1.20;;;1.10;;
65206;SDS011;58477;48.072;11.970;2023-03-23T14:20:50;2.17;;;1.30;;
65206;SDS011;58477;48.072;11.970;2023-03-23T14:23:17;1.23;;;1.10;;
65206;SDS011;58477;48.072;11.970;2023-03-23T14:25:43;1.38;;;1.27;;
65206;SDS011;58477;48.072;11.970;2023-03-23T14:28:16;2.72;;;1.20;;
65206;SDS011;58477;48.072;11.970;2023-03-23T14:30:47;4.20;;;1.30;;
65206;SDS011;58477;48.072;11.970;2023-03-23T14:33:17;1.80;;;1.30;;
65206;SDS011;58477;48.072;11.970;2023-03-23T14:35:44;4.15;;;1.00;;
65206;SDS011;58477;48.072;11.970;2023-03-23T14:38:14;1.67;;;1.30;;
65206;SDS011;58477;48.072;11.970;2023-03-23T14:40:43;3.08;;;1.25;;
65206;SDS011;58477;48.072;11.970;2023-03-23T14:43:10;1.63;;;1.30;;
65206;SDS011;58477;48.072;11.970;2023-03-23T14:45:38;2.28;;;1.25;;
65206;SDS011;58477;48.072;11.970;2023-03-23T14:48:04;4.00;;;1.52;;
65206;SDS011;58477;48.072;11.970;2023-03-23T14:50:38;1.85;;;1.20;;
65206;SDS011;58477;48.072;11.970;2023-03-23T14:53:15;1.42;;;1.15;;
65206;SDS011;58477;48.072;11.970;2023-03-23T14:55:46;3.83;;;1.40;;
65206;SDS011;58477;48.072;11.970;2023-03-23T14:58:13;3.08;;;1.02;;
65206;SDS011;58477;48.072;11.970;2023-03-23T15:00:42;1.35;;;1.25;;
65206;SDS011;58477;48.072;11.970;2023-03-23T15:03:12;1.75;;;1.10;;
65206;SDS011;58477;48.072;11.970;2023-03-23T15:05:57;3.78;;;1.38;;
65206;SDS011;58477;48.072;11.970;2023-03-23T15:08:27;3.65;;;1.10;;
65206;SDS011;58477;48.072;11.970;2023-03-23T15:11:06;2.35;;;1.23;;
65206;SDS011;58477;48.072;11.970;2023-03-23T15:13:36;2.10;;;1.50;;
65206;SDS011;58477;48.072;11.970;2023-03-23T15:16:06;1.98;;;1.50;;
65206;SDS011;58477;48.072;11.970;2023-03-23T15:18:39;2.10;;;1.35;;
65206;SDS011;58477;48.072;11.970;2023-03-23T15:21:11;1.30;;;1.20;;
65206;SDS011;58477;48.072;11.970;2023-03-23T15:23:45;3.80;;;1.10;;
65206;SDS011;58477;48.072;11.970;2023-03-23T15:26:17;1.83;;;1.45;;
65206;SDS011;58477;48.072;11.970;2023-03-23T15:28:48;4.97;;;1.42;;
65206;SDS011;58477;48.072;11.970;2023-03-23T15:31:14;1.60;;;1.20;;
65206;SDS011;58477;48.072;11.970;2023-03-23T15:33:39;2.00;;;1.33;;
65206;SDS011;58477;48.072;11.970;2023-03-23T15:36:13;2.95;;;1.40;;
65206;SDS011;58477;48.072;11.970;2023-03-23T15:38:42;1.20;;;1.10;;
65206;SDS011;58477;48.072;11.970;2023-03-23T15:41:19;6.10;;;1.40;;
65206;SDS011;58477;48.072;11.970;2023-03-23T15:43:49;2.70;;;1.20;;
65206;SDS011;58477;48.072;11.970;2023-03-23T15:48:48;7.90;;;1.27;;
65206;SDS011;58477;48.072;11.970;2023-03-23T15:51:14;3.03;;;1.27;;
65206;SDS011;58477;48.072;11.970;2023-03-23T15:53:41;3.13;;;1.40;;
65206;SDS011;58477;48.072;11.970;2023-03-23T15:56:08;2.53;;;1.48;;
65206;SDS011;58477;48.072;11.970;2023-03-23T15:58:35;4.93;;;1.23;;
65206;SDS011;58477;48.072;11.970;2023-03-23T16:01:05;1.80;;;1.38;;
65206;SDS011;58477;48.072;11.970;2023-03-23T16:06:03;2.60;;;1.38;;
65206;SDS011;58477;48.072;11.970;2023-03-23T16:08:29;4.40;;;1.50;;
65206;SDS011;58477;48.072;11.970;2023-03-23T16:10:54;1.50;;;1.30;;
65206;SDS011;58477;48.072;11.970;2023-03-23T16:13:20;1.33;;;1.20;;
65206;SDS011;58477;48.072;11.970;2023-03-23T16:15:47;4.03;;;1.45;;
65206;SDS011;58477;48.072;11.970;2023-03-23T16:18:17;2.40;;;1.48;;
65206;SDS011;58477;48.072;11.970;2023-03-23T16:20:44;2.25;;;1.50;;
65206;SDS011;58477;48.072;11.970;2023-03-23T16:23:10;5.22;;;1.75;;
65206;SDS011;58477;48.072;11.970;2023-03-23T16:25:36;1.35;;;1.10;;
65206;SDS011;58477;48.072;11.970;2023-03-23T16:28:01;2.58;;;1.73;;
65206;SDS011;58477;48.072;11.970;2023-03-23T16:30:27;1.80;;;1.20;;
65206;SDS011;58477;48.072;11.970;2023-03-23T16:32:56;3.65;;;1.30;;
65206;SDS011;58477;48.072;11.970;2023-03-23T16:35:22;4.80;;;1.38;;
65206;SDS011;58477;48.072;11.970;2023-03-23T16:37:49;1.55;;;1.13;;
65206;SDS011;58477;48.072;11.970;2023-03-23T16:40:16;3.35;;;1.50;;
65206;SDS011;58477;48.072;11.970;2023-03-23T16:42:42;2.33;;;1.70;;
65206;SDS011;58477;48.072;11.970;2023-03-23T16:45:08;3.30;;;1.50;;
65206;SDS011;58477;48.072;11.970;2023-03-23T16:47:34;3.42;;;1.50;;
65206;SDS011;58477;48.072;11.970;2023-03-23T16:50:00;2.35;;;1.55;;
65206;SDS011;58477;48.072;11.970;2023-03-23T16:52:26;2.38;;;1.45;;
65206;SDS011;58477;48.072;11.970;2023-03-23T16:54:52;2.20;;;1.70;;